Time;durP1;ratioP1;P1;durP2;ratioP2;P2;SDS_P1;SDS_P2;PMS_P1;PMS_P2;Temp;Humidity;BMP_temperature;BMP_pressure;BME280_temperature;BME280_humidity;BME280_pressure;Samples;Min_cycle;Max_cycle;Signal;HPM_P1;HPM_P2
2022/04/03 00:00:13;;;;;;;9.20;3.88;;;1.50;99.90;;;;;;5000820;28;20305;-68
2022/04/03 00:02:39;;;;;;;6.60;3.65;;;1.50;99.90;;;;;;5005409;28;20153;-67
2022/04/03 00:05:05;;;;;;;5.57;3.03;;;1.50;99.90;;;;;;5005633;28;20050;-67
2022/04/03 00:07:32;;;;;;;5.28;2.75;;;1.60;99.90;;;;;;4988451;28;20045;-68
2022/04/03 00:09:57;;;;;;;6.45;2.90;;;1.60;99.90;;;;;;5004273;28;20120;-68
2022/04/03 00:12:24;;;;;;;6.90;3.53;;;1.60;99.90;;;;;;5004427;28;20169;-68
2022/04/03 00:14:49;;;;;;;7.50;3.10;;;1.70;99.90;;;;;;4989956;28;20038;-68
2022/04/03 00:17:15;;;;;;;6.40;3.57;;;1.70;99.90;;;;;;5000099;28;20053;-68
2022/04/03 00:19:41;;;;;;;6.05;3.25;;;1.70;99.90;;;;;;5001868;28;20117;-68
2022/04/03 00:22:07;;;;;;;5.93;3.20;;;1.70;99.90;;;;;;4999920;28;20122;-68
2022/04/03 00:24:33;;;;;;;6.27;3.30;;;1.80;99.90;;;;;;5001504;28;20312;-68
2022/04/03 00:26:58;;;;;;;5.07;3.07;;;1.80;99.90;;;;;;5006777;28;20034;-68
2022/04/03 00:29:24;;;;;;;8.10;2.53;;;1.80;99.90;;;;;;4988336;28;20049;-68
2022/04/03 00:31:50;;;;;;;7.00;3.20;;;1.90;99.90;;;;;;5000473;28;20380;-68
2022/04/03 00:34:16;;;;;;;5.47;2.33;;;1.90;99.90;;;;;;4999592;28;20101;-68
2022/04/03 00:36:41;;;;;;;6.63;3.27;;;2.00;99.90;;;;;;4999929;28;20429;-68
2022/04/03 00:39:07;;;;;;;9.87;3.30;;;2.00;99.90;;;;;;5001087;28;20096;-68
2022/04/03 00:41:32;;;;;;;7.27;3.00;;;2.10;99.90;;;;;;5007366;28;20038;-68
2022/04/03 00:43:59;;;;;;;6.67;2.50;;;2.10;99.90;;;;;;4998462;28;20317;-68
2022/04/03 00:46:27;;;;;;;5.07;2.55;;;2.20;99.90;;;;;;5004604;28;20120;-68
2022/04/03 00:48:53;;;;;;;6.20;2.83;;;2.10;99.90;;;;;;4996851;28;20457;-68
2022/04/03 00:51:19;;;;;;;6.10;2.53;;;2.10;99.90;;;;;;5001796;28;20095;-68
2022/04/03 00:53:44;;;;;;;4.82;2.30;;;2.10;99.90;;;;;;5004225;28;20487;-68
2022/04/03 00:56:10;;;;;;;3.80;1.73;;;2.10;99.90;;;;;;5005069;28;20057;-68
2022/04/03 00:58:38;;;;;;;2.97;1.70;;;2.20;99.90;;;;;;4997310;28;20141;-68
2022/04/03 01:01:04;;;;;;;3.92;1.23;;;2.20;99.90;;;;;;4995397;28;20042;-68
2022/04/03 01:03:30;;;;;;;2.22;1.15;;;2.30;99.90;;;;;;5004803;28;20091;-68
2022/04/03 01:05:56;;;;;;;2.03;1.17;;;2.30;99.90;;;;;;5004854;28;20429;-68
2022/04/03 01:08:25;;;;;;;2.90;1.50;;;2.30;99.90;;;;;;5002530;28;20387;-68
2022/04/03 01:10:52;;;;;;;3.58;1.38;;;2.40;99.90;;;;;;5005919;28;20060;-68
2022/04/03 01:13:17;;;;;;;2.70;1.40;;;2.50;99.90;;;;;;4998729;28;20541;-68
2022/04/03 01:15:53;;;;;;;4.07;1.33;;;2.50;99.90;;;;;;4999062;28;20066;-68
2022/04/03 01:18:19;;;;;;;5.38;1.70;;;2.50;99.90;;;;;;4997483;28;20125;-68
2022/04/03 01:20:45;;;;;;;3.33;1.30;;;2.50;99.90;;;;;;4997193;28;20052;-67
2022/04/03 01:23:11;;;;;;;4.38;1.52;;;2.60;99.90;;;;;;5000696;28;20132;-68
2022/04/03 01:25:37;;;;;;;3.90;1.30;;;2.60;99.90;;;;;;4999486;28;20136;-68
2022/04/03 01:28:02;;;;;;;4.87;1.47;;;2.60;99.90;;;;;;5002580;28;20084;-68
2022/04/03 01:30:28;;;;;;;3.23;1.40;;;2.70;99.90;;;;;;5003241;28;20342;-68
2022/04/03 01:32:53;;;;;;;3.07;1.60;;;2.60;99.90;;;;;;4995653;28;20076;-68
2022/04/03 01:35:19;;;;;;;3.43;1.60;;;2.60;99.90;;;;;;5003080;28;20156;-68
2022/04/03 01:37:45;;;;;;;7.77;1.70;;;2.70;99.90;;;;;;4997902;28;20041;-68
2022/04/03 01:40:12;;;;;;;2.87;1.77;;;2.70;99.90;;;;;;5002452;28;20057;-67
2022/04/03 01:42:37;;;;;;;3.42;1.70;;;2.70;99.90;;;;;;5000200;28;20038;-68
2022/04/03 01:45:05;;;;;;;4.33;1.70;;;2.70;99.90;;;;;;4999945;28;20363;-68
2022/04/03 01:47:30;;;;;;;4.22;1.42;;;2.70;99.90;;;;;;5000720;28;20151;-68
2022/04/03 01:49:56;;;;;;;7.93;2.13;;;2.70;99.90;;;;;;5000628;28;20041;-68
2022/04/03 01:52:22;;;;;;;3.97;1.60;;;2.70;99.90;;;;;;5000738;28;20038;-67
2022/04/03 01:54:47;;;;;;;2.80;1.73;;;2.70;99.90;;;;;;5000220;28;20038;-68
2022/04/03 01:57:13;;;;;;;3.87;1.83;;;2.70;99.90;;;;;;5003974;28;20087;-68
2022/04/03 01:59:38;;;;;;;3.77;2.07;;;2.70;99.90;;;;;;4998327;28;20062;-68
2022/04/03 02:02:04;;;;;;;4.37;2.60;;;2.70;99.90;;;;;;5003031;28;20482;-68
2022/04/03 02:04:30;;;;;;;4.43;1.60;;;2.70;99.90;;;;;;5001359;28;20450;-68
2022/04/03 02:06:57;;;;;;;3.87;2.17;;;2.60;99.90;;;;;;5006096;28;20038;-68
2022/04/03 02:09:23;;;;;;;3.17;1.70;;;2.50;99.90;;;;;;5001643;28;20045;-68
2022/04/03 02:11:48;;;;;;;4.73;1.97;;;2.50;99.90;;;;;;5002715;28;20038;-68
2022/04/03 02:14:14;;;;;;;4.03;1.77;;;2.50;99.90;;;;;;5003926;28;20124;-68
2022/04/03 02:16:39;;;;;;;5.90;1.80;;;2.40;99.90;;;;;;4986958;28;20049;-68
2022/04/03 02:19:05;;;;;;;2.83;1.53;;;2.40;99.90;;;;;;4996574;28;20421;-68
2022/04/03 02:21:30;;;;;;;4.87;1.73;;;2.40;99.90;;;;;;5000970;28;20046;-68
2022/04/03 02:23:56;;;;;;;3.73;1.60;;;2.40;99.90;;;;;;4999694;28;20049;-68
2022/04/03 02:26:22;;;;;;;6.30;1.70;;;2.30;99.90;;;;;;5008871;28;20041;-68
2022/04/03 02:28:47;;;;;;;6.10;1.73;;;2.30;99.90;;;;;;5005486;28;20037;-68
2022/04/03 02:31:14;;;;;;;2.57;1.47;;;2.20;99.90;;;;;;5008497;28;20069;-68
2022/04/03 02:33:39;;;;;;;3.83;1.80;;;2.20;99.90;;;;;;5006439;28;20045;-68
2022/04/03 02:36:05;;;;;;;4.27;1.83;;;2.20;99.90;;;;;;5004386;28;20033;-68
2022/04/03 02:38:31;;;;;;;5.80;1.67;;;2.20;99.90;;;;;;5002603;28;20056;-68
2022/04/03 02:40:56;;;;;;;3.40;1.60;;;2.20;99.90;;;;;;5005143;28;20482;-68
2022/04/03 02:43:23;;;;;;;3.50;1.97;;;2.10;99.90;;;;;;5001000;28;20449;-67
2022/04/03 02:45:51;;;;;;;3.95;1.48;;;2.20;99.90;;;;;;5003868;28;20042;-68
2022/04/03 02:48:17;;;;;;;4.30;1.70;;;2.10;99.90;;;;;;5003015;28;20038;-68
2022/04/03 02:50:43;;;;;;;3.08;1.63;;;2.10;99.90;;;;;;5003063;28;20569;-67
2022/04/03 02:53:09;;;;;;;2.70;1.20;;;2.00;99.90;;;;;;4998968;28;20049;-68
2022/04/03 02:55:35;;;;;;;3.90;1.70;;;2.00;99.90;;;;;;5003659;28;20457;-68
2022/04/03 02:58:01;;;;;;;5.03;1.93;;;1.90;99.90;;;;;;5003363;28;20199;-68
2022/04/03 03:00:30;;;;;;;3.07;1.50;;;1.90;99.90;;;;;;4986830;28;20399;-67
2022/04/03 03:02:56;;;;;;;5.32;1.75;;;1.90;99.90;;;;;;5001354;28;20057;-68
2022/04/03 03:05:21;;;;;;;3.73;2.20;;;1.90;99.90;;;;;;5002250;28;20045;-68
2022/04/03 03:07:48;;;;;;;4.78;1.77;;;1.80;99.90;;;;;;5001443;28;20114;-68
2022/04/03 03:10:16;;;;;;;;;;;1.80;99.90;;;;;;4999276;28;20045;-68
2022/04/03 03:12:41;;;;;;;4.32;1.50;;;1.80;99.90;;;;;;5002421;28;19924;-68
2022/04/03 03:15:07;;;;;;;1.93;1.47;;;1.70;99.90;;;;;;5001922;28;20056;-69
2022/04/03 03:17:33;;;;;;;3.38;1.70;;;1.80;99.90;;;;;;5003243;28;20494;-68
2022/04/03 03:19:59;;;;;;;2.37;1.43;;;1.70;99.90;;;;;;5000073;28;20137;-68
2022/04/03 03:22:25;;;;;;;7.47;1.60;;;1.70;99.90;;;;;;5002385;28;20290;-68
2022/04/03 03:24:51;;;;;;;3.90;1.70;;;1.60;99.90;;;;;;4999236;28;20037;-68
2022/04/03 03:27:17;;;;;;;4.10;1.43;;;1.60;99.90;;;;;;5002996;28;20100;-68
2022/04/03 03:29:43;;;;;;;7.70;1.27;;;1.60;99.90;;;;;;5001677;28;20033;-67
2022/04/03 03:32:09;;;;;;;2.97;1.60;;;1.60;99.90;;;;;;5000364;28;20504;-68
2022/04/03 03:34:37;;;;;;;4.28;1.65;;;1.60;99.90;;;;;;5001018;28;20088;-68
2022/04/03 03:37:03;;;;;;;3.83;1.50;;;1.60;99.90;;;;;;5001218;28;20140;-68
2022/04/03 03:39:29;;;;;;;2.73;1.30;;;1.50;99.90;;;;;;5002848;28;20062;-68
2022/04/03 03:41:55;;;;;;;2.80;1.40;;;1.50;99.90;;;;;;5004740;28;20065;-68
2022/04/03 03:44:24;;;;;;;3.75;1.48;;;1.50;99.90;;;;;;5004378;28;20195;-68
2022/04/03 03:46:50;;;;;;;3.70;1.60;;;1.50;99.90;;;;;;5003036;28;20178;-68
2022/04/03 03:49:16;;;;;;;4.30;1.50;;;1.50;99.90;;;;;;5005753;28;20704;-68
2022/04/03 03:51:42;;;;;;;6.43;1.67;;;1.50;99.90;;;;;;5005450;28;20034;-68
2022/04/03 03:54:08;;;;;;;5.90;1.20;;;1.50;99.90;;;;;;5004517;28;20453;-68
2022/04/03 03:56:34;;;;;;;2.90;1.30;;;1.50;99.90;;;;;;5000463;28;20473;-68
2022/04/03 03:58:59;;;;;;;2.80;1.50;;;1.50;99.90;;;;;;4999221;28;20065;-68
2022/04/03 04:01:25;;;;;;;2.97;1.30;;;1.60;99.90;;;;;;5000124;28;20402;-68
2022/04/03 04:03:51;;;;;;;2.93;1.37;;;1.60;99.90;;;;;;5004618;28;20038;-68
2022/04/03 04:06:16;;;;;;;2.20;1.43;;;1.60;99.90;;;;;;4990685;28;20042;-67
2022/04/03 04:08:42;;;;;;;2.20;1.30;;;1.50;99.90;;;;;;5002973;28;20091;-68
2022/04/03 04:11:08;;;;;;;3.58;1.10;;;1.50;99.90;;;;;;5008091;28;20107;-68
2022/04/03 04:13:34;;;;;;;2.47;1.17;;;1.50;99.90;;;;;;4998786;28;20050;-68
2022/04/03 04:16:00;;;;;;;2.40;1.13;;;1.50;99.90;;;;;;5002460;28;20096;-68
2022/04/03 04:18:26;;;;;;;4.10;1.73;;;1.50;99.90;;;;;;5004882;28;20034;-68
2022/04/03 04:20:52;;;;;;;2.57;1.10;;;1.50;99.90;;;;;;5002712;28;20145;-67
2022/04/03 04:23:19;;;;;;;2.80;1.60;;;1.40;99.90;;;;;;5003713;28;20096;-68
2022/04/03 04:25:45;;;;;;;4.10;1.25;;;1.40;99.90;;;;;;5013202;28;20104;-68
2022/04/03 04:28:12;;;;;;;2.53;1.33;;;1.40;99.90;;;;;;5004760;28;20026;-68
2022/04/03 04:30:38;;;;;;;4.43;1.52;;;1.40;99.90;;;;;;4996495;28;20116;-68
2022/04/03 04:33:06;;;;;;;3.50;1.40;;;1.40;99.90;;;;;;5002898;28;20038;-68
2022/04/03 04:35:31;;;;;;;2.55;1.42;;;1.30;99.90;;;;;;5007096;28;20117;-68
2022/04/03 04:37:57;;;;;;;1.60;1.00;;;1.30;99.90;;;;;;5003719;28;20539;-68
2022/04/03 04:40:23;;;;;;;4.00;1.50;;;1.30;99.90;;;;;;5006079;28;20088;-68
2022/04/03 04:42:51;;;;;;;4.17;1.77;;;1.30;99.90;;;;;;5004442;28;20817;-68
2022/04/03 04:45:17;;;;;;;5.47;1.80;;;1.30;99.90;;;;;;5001754;28;20455;-68
2022/04/03 04:47:42;;;;;;;5.23;1.53;;;1.30;99.90;;;;;;4988716;28;20065;-68
2022/04/03 04:50:20;;;;;;;7.73;1.40;;;1.30;99.90;;;;;;5003927;28;20041;-67
2022/04/03 04:52:45;;;;;;;;;;;1.20;99.90;;;;;;5000876;28;20042;-67
2022/04/03 04:55:11;;;;;;;5.25;2.70;;;1.20;99.90;;;;;;5002127;28;20579;-68
2022/04/03 04:57:38;;;;;;;4.25;2.15;;;1.20;99.90;;;;;;4986467;28;20038;-67
2022/04/03 05:00:08;;;;;;;;;;;1.30;99.90;;;;;;4998367;28;20049;-67
2022/04/03 05:02:34;;;;;;;4.47;2.03;;;1.30;99.90;;;;;;5000387;28;19972;-68
2022/04/03 05:04:59;;;;;;;7.13;2.73;;;1.20;99.90;;;;;;5005324;28;20049;-68
2022/04/03 05:07:27;;;;;;;5.07;2.40;;;1.30;99.90;;;;;;4991301;28;20260;-68
2022/04/03 05:09:53;;;;;;;5.03;2.20;;;1.30;99.90;;;;;;5003283;28;20048;-68
2022/04/03 05:12:19;;;;;;;6.83;2.40;;;1.20;99.90;;;;;;5003775;28;20042;-68
2022/04/03 05:14:45;;;;;;;;;;;1.20;99.90;;;;;;5005153;28;20038;-68
2022/04/03 05:17:14;;;;;;;5.30;1.60;;;1.20;99.90;;;;;;5007400;28;19971;-68
2022/04/03 05:19:41;;;;;;;2.47;1.60;;;1.20;99.90;;;;;;4999516;28;20053;-68
2022/04/03 05:22:06;;;;;;;5.07;1.70;;;1.20;99.90;;;;;;5001370;28;21863;-68
2022/04/03 05:24:32;;;;;;;3.17;1.50;;;1.20;99.90;;;;;;5006160;28;20045;-67
2022/04/03 05:26:57;;;;;;;5.30;1.93;;;1.30;99.90;;;;;;5004819;28;20045;-68
2022/04/03 05:29:23;;;;;;;3.73;1.77;;;1.30;99.90;;;;;;4998032;28;20076;-68
2022/04/03 05:31:49;;;;;;;6.87;2.67;;;1.40;99.90;;;;;;5001818;28;20038;-68
2022/04/03 05:34:14;;;;;;;5.20;1.87;;;1.40;99.90;;;;;;5002625;28;20073;-68
2022/04/03 05:36:40;;;;;;;6.50;1.43;;;1.50;99.90;;;;;;5001671;28;20038;-68
2022/04/03 05:39:06;;;;;;;4.43;1.80;;;1.50;99.90;;;;;;5006827;28;20049;-68
2022/04/03 05:41:32;;;;;;;3.60;1.50;;;1.60;99.90;;;;;;5003678;28;20048;-68
2022/04/03 05:43:58;;;;;;;3.35;1.48;;;1.60;99.90;;;;;;5001472;28;20052;-68
2022/04/03 05:46:24;;;;;;;4.75;2.08;;;1.70;99.90;;;;;;5002182;28;20088;-68
2022/04/03 05:51:23;;;;;;;2.30;0.88;;;1.80;99.90;;;;;;5062895;28;20476;-68
2022/04/03 05:53:48;;;;;;;5.53;1.03;;;1.80;99.90;;;;;;5043435;28;20044;-68
2022/04/03 05:56:14;;;;;;;4.67;1.10;;;1.90;99.90;;;;;;5053391;28;20337;-68
2022/04/03 05:58:39;;;;;;;5.67;0.97;;;1.90;99.90;;;;;;5024689;28;20161;-68
2022/04/03 06:01:08;;;;;;;2.60;1.00;;;1.90;99.90;;;;;;5035143;28;20116;-68
2022/04/03 06:03:34;;;;;;;2.17;1.10;;;1.90;99.90;;;;;;5024007;28;20041;-68
2022/04/03 06:06:00;;;;;;;5.93;0.97;;;2.00;99.90;;;;;;5039086;28;20558;-69
2022/04/03 06:08:26;;;;;;;6.85;2.10;;;2.00;99.90;;;;;;5043381;28;20045;-68
2022/04/03 06:10:51;;;;;;;3.37;0.80;;;2.00;99.90;;;;;;5027936;28;20043;-68
2022/04/03 06:13:17;;;;;;;3.73;1.10;;;2.00;99.90;;;;;;5028535;28;20512;-69
2022/04/03 06:15:45;;;;;;;3.30;0.87;;;2.10;99.90;;;;;;5011461;28;20547;-68
2022/04/03 06:18:15;;;;;;;3.50;1.08;;;2.10;99.90;;;;;;5042749;28;20067;-68
2022/04/03 06:20:41;;;;;;;4.07;1.58;;;2.10;99.90;;;;;;5043893;28;20032;-68
2022/04/03 06:23:15;;;;;;;3.22;1.15;;;2.10;99.90;;;;;;5026618;28;20545;-67
2022/04/03 06:25:42;;;;;;;7.22;1.00;;;2.10;99.90;;;;;;5037503;28;20390;-68
2022/04/03 06:28:08;;;;;;;3.08;1.10;;;2.10;99.90;;;;;;5020952;28;20497;-69
2022/04/03 06:30:34;;;;;;;4.55;1.13;;;2.10;99.90;;;;;;5036453;28;20079;-68
2022/04/03 06:33:00;;;;;;;8.37;1.23;;;2.10;99.90;;;;;;5043420;28;20041;-68
2022/04/03 06:35:25;;;;;;;3.50;1.13;;;2.10;99.90;;;;;;5041400;28;20081;-68
2022/04/03 06:37:51;;;;;;;9.27;1.53;;;2.10;99.90;;;;;;5042137;28;20459;-68
2022/04/03 06:40:17;;;;;;;5.53;1.37;;;2.10;99.90;;;;;;5025464;28;20533;-68
2022/04/03 06:42:43;;;;;;;3.40;0.90;;;2.10;99.90;;;;;;5044245;28;20088;-68
2022/04/03 06:45:09;;;;;;;3.67;1.20;;;2.10;99.90;;;;;;5041369;28;20029;-68
2022/04/03 06:47:36;;;;;;;5.32;1.23;;;2.10;99.90;;;;;;5043131;28;20288;-67
2022/04/03 06:50:03;;;;;;;11.38;1.75;;;2.10;99.90;;;;;;5024641;28;20529;-68
2022/04/03 06:52:28;;;;;;;3.72;1.05;;;2.20;99.90;;;;;;5042521;28;20045;-67
2022/04/03 06:54:54;;;;;;;4.77;1.53;;;2.20;99.90;;;;;;5041342;28;20048;-68
2022/04/03 06:57:19;;;;;;;4.13;1.30;;;2.30;99.90;;;;;;5028123;28;20045;-68
2022/04/03 06:59:48;;;;;;;3.80;1.60;;;2.40;99.90;;;;;;5031106;28;20032;-68
2022/04/03 07:02:14;;;;;;;4.95;1.33;;;2.50;99.90;;;;;;5043610;28;20397;-68
2022/04/03 07:04:40;;;;;;;6.33;1.23;;;2.60;99.90;;;;;;5019712;28;20044;-68
2022/04/03 07:07:06;;;;;;;3.88;1.10;;;2.70;99.90;;;;;;5043307;28;20037;-68
2022/04/03 07:09:37;;;;;;;2.40;0.90;;;2.90;99.90;;;;;;5020655;28;20040;-68
2022/04/03 07:12:03;;;;;;;7.15;1.00;;;3.10;99.90;;;;;;5026634;28;20045;-68
2022/04/03 07:14:29;;;;;;;3.00;0.80;;;3.30;99.90;;;;;;5025403;28;20051;-67
2022/04/03 07:16:55;;;;;;;2.80;0.80;;;3.40;99.90;;;;;;5047460;28;20045;-68
2022/04/03 07:19:20;;;;;;;5.17;0.83;;;3.50;99.90;;;;;;5016972;28;20045;-68
2022/04/03 07:21:46;;;;;;;3.40;0.60;;;3.60;99.90;;;;;;5043913;28;20066;-68
2022/04/03 07:24:11;;;;;;;5.33;0.93;;;3.70;99.90;;;;;;5047410;28;20509;-68
2022/04/03 07:26:37;;;;;;;2.50;0.90;;;3.80;99.90;;;;;;5015212;28;20050;-68
2022/04/03 07:29:03;;;;;;;5.83;0.80;;;3.90;99.90;;;;;;5044636;28;20187;-68
2022/04/03 07:31:28;;;;;;;3.27;1.27;;;4.00;99.90;;;;;;5027789;28;20045;-68
2022/04/03 07:33:55;;;;;;;3.77;1.37;;;4.10;99.90;;;;;;5031541;28;20083;-68
2022/04/03 07:36:20;;;;;;;4.30;1.50;;;4.20;99.90;;;;;;5047044;28;20094;-68
2022/04/03 07:38:46;;;;;;;4.17;0.97;;;4.30;99.90;;;;;;5028086;28;20044;-68
2022/04/03 07:41:12;;;;;;;2.30;0.80;;;4.40;99.90;;;;;;5048237;28;20037;-68
2022/04/03 07:43:37;;;;;;;2.70;1.10;;;4.50;99.90;;;;;;5054943;28;20091;-68
2022/04/03 07:46:03;;;;;;;2.80;0.68;;;4.50;99.90;;;;;;5030209;28;20044;-68
2022/04/03 07:48:31;;;;;;;2.30;0.98;;;4.70;99.90;;;;;;5043365;28;20041;-68
2022/04/03 07:50:57;;;;;;;5.13;0.60;;;4.70;99.90;;;;;;5046132;28;20506;-67
2022/04/03 07:53:22;;;;;;;3.07;0.80;;;4.80;99.90;;;;;;5046685;28;20456;-68
2022/04/03 07:55:49;;;;;;;4.10;0.67;;;4.90;99.90;;;;;;5041576;28;20052;-68
2022/04/03 07:58:14;;;;;;;0.80;0.50;;;5.00;99.90;;;;;;5045879;28;20132;-68
2022/04/03 08:00:40;;;;;;;0.77;0.53;;;5.10;99.90;;;;;;5033451;28;20133;-68
2022/04/03 08:03:07;;;;;;;2.58;0.75;;;5.20;99.90;;;;;;5035602;28;20042;-68
2022/04/03 08:05:34;;;;;;;;;;;5.20;99.90;;;;;;5049641;28;20107;-69
2022/04/03 08:07:59;;;;;;;1.60;0.60;;;5.20;99.90;;;;;;5044417;28;19923;-68
2022/04/03 08:10:25;;;;;;;1.90;0.90;;;5.20;99.90;;;;;;5040383;28;20025;-68
2022/04/03 08:12:51;;;;;;;4.90;0.40;;;5.30;99.90;;;;;;5045884;28;20037;-68
2022/04/03 08:15:18;;;;;;;1.13;0.50;;;5.30;99.90;;;;;;5040734;28;20037;-68
2022/04/03 08:17:44;;;;;;;1.40;0.40;;;5.40;99.90;;;;;;5047153;28;20600;-67
2022/04/03 08:20:16;;;;;;;2.10;0.30;;;5.40;99.90;;;;;;5026149;28;20052;-68
2022/04/03 08:22:43;;;;;;;0.98;0.40;;;5.50;99.90;;;;;;5046561;28;20071;-68
2022/04/03 08:25:10;;;;;;;3.38;0.63;;;5.60;99.90;;;;;;5028821;28;20102;-68
2022/04/03 08:27:55;;;;;;;2.38;0.43;;;5.60;99.90;;;;;;5033860;28;20041;-68
2022/04/03 08:30:23;;;;;;;0.50;0.30;;;5.70;99.90;;;;;;5045941;28;20173;-68
2022/04/03 08:32:49;;;;;;;0.28;0.20;;;5.80;99.90;;;;;;5049259;28;20045;-68
2022/04/03 08:35:16;;;;;;;2.67;0.40;;;5.90;99.90;;;;;;5044399;28;20037;-68
2022/04/03 08:37:42;;;;;;;;;;;6.00;99.90;;;;;;5026536;28;20047;-68
2022/04/03 08:40:09;;;;;;;1.40;0.28;;;6.10;99.90;;;;;;5045027;28;20377;-68
2022/04/03 08:42:36;;;;;;;1.67;0.88;;;6.10;99.90;;;;;;5041531;28;20444;-68
2022/04/03 08:45:06;;;;;;;2.15;0.70;;;6.20;99.90;;;;;;5044395;28;20063;-68
2022/04/03 08:47:37;;;;;;;0.77;0.30;;;6.20;99.90;;;;;;5046634;28;20047;-68
2022/04/03 08:50:03;;;;;;;2.03;0.30;;;6.20;99.90;;;;;;5020698;28;20032;-68
2022/04/03 08:52:31;;;;;;;1.52;0.50;;;6.30;99.90;;;;;;5042214;28;20041;-68
2022/04/03 08:54:58;;;;;;;2.33;0.90;;;6.40;99.90;;;;;;5021906;28;20065;-68
2022/04/03 08:57:24;;;;;;;3.85;1.02;;;6.40;99.90;;;;;;5042043;28;20037;-68
2022/04/03 08:59:51;;;;;;;0.80;0.50;;;6.50;99.90;;;;;;5040199;28;20055;-68
2022/04/03 09:02:16;;;;;;;;;;;6.60;99.90;;;;;;5025308;28;20586;-68
2022/04/03 09:04:42;;;;;;;1.05;0.60;;;6.70;99.90;;;;;;5031298;28;20011;-68
2022/04/03 09:07:19;;;;;;;5.43;0.60;;;6.70;99.90;;;;;;5034989;28;20041;-68
2022/04/03 09:09:55;;;;;;;2.95;0.52;;;6.60;99.90;;;;;;5040788;28;20083;-68
2022/04/03 09:12:21;;;;;;;0.45;0.40;;;6.70;99.90;;;;;;4892263;28;20456;-67
2022/04/03 09:14:57;;;;;;;3.95;0.70;;;6.80;99.90;;;;;;4884633;28;20044;-69
2022/04/03 09:17:44;;;;;;;3.83;0.98;;;6.90;99.90;;;;;;5049939;28;20044;-69
2022/04/03 09:20:17;;;;;;;1.58;0.93;;;6.90;99.90;;;;;;5017570;28;20037;-70
2022/04/03 09:22:45;;;;;;;4.43;0.80;;;7.00;99.90;;;;;;4879907;28;20476;-69
2022/04/03 09:25:13;;;;;;;3.30;0.60;;;7.20;99.90;;;;;;5032937;28;20048;-69
2022/04/03 09:27:59;;;;;;;1.25;0.50;;;7.40;99.90;;;;;;5044231;28;20083;-69
2022/04/03 09:30:37;;;;;;;2.85;0.60;;;7.70;99.90;;;;;;5026998;28;20765;-69
2022/04/03 09:33:15;;;;;;;3.03;0.38;;;7.90;99.90;;;;;;5025624;28;20044;-68
2022/04/03 09:35:58;;;;;;;1.55;0.55;;;8.10;98.40;;;;;;4903880;28;20045;-73
2022/04/03 09:38:29;;;;;;;2.50;0.77;;;8.20;96.80;;;;;;5029675;28;20051;-68
2022/04/03 09:40:56;;;;;;;2.22;0.75;;;8.20;98.50;;;;;;5036591;28;20045;-69
2022/04/03 09:43:38;;;;;;;1.00;0.55;;;8.20;97.90;;;;;;5023762;28;20131;-69
2022/04/03 09:46:34;;;;;;;1.60;0.70;;;8.20;96.30;;;;;;4963450;28;20700;-68
2022/04/03 09:49:30;;;;;;;4.10;1.23;;;8.20;99.00;;;;;;4849327;28;20406;-68
2022/04/03 09:51:56;;;;;;;1.27;0.52;;;8.10;93.60;;;;;;4845919;28;21370;-69
2022/04/03 09:54:22;;;;;;;2.40;0.82;;;8.00;97.30;;;;;;5034378;28;20038;-68
2022/04/03 09:56:48;;;;;;;1.55;0.55;;;7.90;96.80;;;;;;5040413;28;20056;-69
2022/04/03 09:59:15;;;;;;;3.20;0.40;;;7.90;98.10;;;;;;5030308;28;20044;-69
2022/04/03 10:01:45;;;;;;;2.53;0.90;;;7.80;96.90;;;;;;4898928;28;20429;-70
2022/04/03 10:04:15;;;;;;;1.73;0.50;;;7.70;96.70;;;;;;5001826;28;20124;-70
2022/04/03 10:06:42;;;;;;;6.47;0.68;;;7.90;97.20;;;;;;5029747;28;20032;-71
2022/04/03 10:09:14;;;;;;;3.47;0.60;;;8.20;96.40;;;;;;5022351;28;20052;-71
2022/04/03 10:11:46;;;;;;;3.65;0.77;;;8.40;94.70;;;;;;5048468;28;20037;-71
2022/04/03 10:14:12;;;;;;;0.93;0.50;;;8.80;92.40;;;;;;5031782;28;20397;-71
2022/04/03 10:16:38;;;;;;;0.88;0.30;;;8.90;89.10;;;;;;5022420;28;20118;-71
2022/04/03 10:19:05;;;;;;;3.88;1.55;;;8.90;82.00;;;;;;5052252;28;20529;-71
2022/04/03 10:21:40;;;;;;;2.97;1.30;;;8.70;78.70;;;;;;4973335;28;20266;-71
2022/04/03 10:24:14;;;;;;;5.13;0.70;;;8.50;79.50;;;;;;4953032;28;20044;-70
2022/04/03 10:26:44;;;;;;;3.47;0.73;;;8.50;84.10;;;;;;5029689;28;20497;-71
2022/04/03 10:29:11;;;;;;;3.90;0.68;;;8.60;86.70;;;;;;5042552;28;20477;-71
2022/04/03 10:31:41;;;;;;;1.38;0.60;;;8.90;84.70;;;;;;5009436;28;20060;-71
2022/04/03 10:34:14;;;;;;;3.33;0.70;;;9.00;82.70;;;;;;4859643;28;20406;-71
2022/04/03 10:36:49;;;;;;;4.30;1.25;;;8.90;82.10;;;;;;4864193;28;20854;-71
2022/04/03 10:39:25;;;;;;;2.10;0.77;;;8.90;83.70;;;;;;4892247;28;20453;-71
2022/04/03 10:42:24;;;;;;;2.13;0.52;;;8.80;87.00;;;;;;4900461;28;20352;-70
2022/04/03 10:45:12;;;;;;;0.60;0.43;;;8.70;89.90;;;;;;4864694;28;20865;-70
2022/04/03 10:47:42;;;;;;;0.88;0.30;;;8.30;91.50;;;;;;4879925;28;20257;-70
2022/04/03 10:50:10;;;;;;;1.73;0.55;;;7.90;95.00;;;;;;5029963;28;20051;-70
2022/04/03 10:52:36;;;;;;;2.15;1.75;;;7.80;96.80;;;;;;5038850;28;20612;-71
2022/04/03 10:55:19;;;;;;;0.70;0.30;;;7.60;98.80;;;;;;5041335;28;20468;-71
2022/04/03 10:57:46;;;;;;;2.55;0.88;;;7.50;99.90;;;;;;5037991;28;20432;-71
2022/04/03 11:00:12;;;;;;;2.25;0.35;;;7.50;99.90;;;;;;5049856;28;20433;-71
2022/04/03 11:03:01;;;;;;;0.98;0.38;;;7.50;99.90;;;;;;4880710;28;20180;-70
2022/04/03 11:05:27;;;;;;;2.45;0.20;;;7.40;99.90;;;;;;5057205;28;20502;-71
2022/04/03 11:08:13;;;;;;;1.13;0.35;;;7.40;99.90;;;;;;4951373;28;20266;-70
2022/04/03 11:11:07;;;;;;;4.85;0.75;;;7.30;99.90;;;;;;5011007;28;20045;-71
2022/04/03 11:13:36;;;;;;;3.10;0.30;;;7.20;99.90;;;;;;4990662;28;20055;-70
2022/04/03 11:16:13;;;;;;;1.83;0.85;;;7.20;99.90;;;;;;4821142;28;20392;-76
2022/04/03 11:18:44;;;;;;;3.42;0.98;;;7.10;99.90;;;;;;4871310;28;20132;-69
2022/04/03 11:21:28;;;;;;;3.78;1.42;;;7.00;99.90;;;;;;4862698;28;20846;-70
2022/04/03 11:24:09;;;;;;;1.85;0.70;;;7.00;99.90;;;;;;5036340;28;20099;-70
2022/04/03 11:26:37;;;;;;;2.33;0.80;;;6.90;99.90;;;;;;5035999;28;20045;-70
2022/04/03 11:29:05;;;;;;;2.58;0.77;;;7.00;99.90;;;;;;5037361;28;20047;-70
2022/04/03 11:31:33;;;;;;;5.15;1.55;;;7.00;99.90;;;;;;4900359;28;20351;-68
2022/04/03 11:34:06;;;;;;;7.22;1.67;;;7.10;99.90;;;;;;4840824;28;20309;-76
2022/04/03 11:36:34;;;;;;;7.13;2.25;;;7.10;99.90;;;;;;4844855;28;20498;-68
2022/04/03 11:39:05;;;;;;;3.70;1.02;;;7.20;99.90;;;;;;4840685;28;20415;-71
2022/04/03 11:41:37;;;;;;;4.80;1.55;;;7.20;99.90;;;;;;4861410;28;20692;-75
2022/04/03 11:44:07;;;;;;;2.75;0.88;;;7.30;99.90;;;;;;4980827;28;20046;-71
2022/04/03 11:46:44;;;;;;;5.13;1.98;;;7.40;99.90;;;;;;5013631;28;20503;-71
2022/04/03 11:51:46;;;;;;;3.60;1.35;;;7.80;99.90;;;;;;5021850;28;20159;-68
2022/04/03 11:54:26;;;;;;;6.03;3.75;;;8.00;99.90;;;;;;5044118;28;20518;-67
2022/04/03 11:57:02;;;;;;;7.30;3.80;;;8.20;99.90;;;;;;5018989;28;20362;-67
2022/04/03 11:59:29;;;;;;;4.07;1.95;;;8.20;99.90;;;;;;5015194;28;20040;-68
2022/04/03 12:02:09;;;;;;;5.88;1.40;;;8.30;99.90;;;;;;4999436;28;20045;-67
2022/04/03 12:04:41;;;;;;;2.97;0.82;;;8.60;99.90;;;;;;5016042;28;20420;-71
2022/04/03 12:07:13;;;;;;;2.47;0.73;;;8.90;99.90;;;;;;5016539;28;20331;-72
2022/04/03 12:09:44;;;;;;;1.67;0.70;;;9.10;99.90;;;;;;5015078;28;20138;-70
2022/04/03 12:12:13;;;;;;;2.17;0.77;;;9.10;98.00;;;;;;5015576;28;20315;-69
2022/04/03 12:14:42;;;;;;;1.10;0.45;;;9.10;96.30;;;;;;4995545;28;20415;-69
2022/04/03 12:17:13;;;;;;;1.60;0.70;;;9.10;91.50;;;;;;5018754;28;20545;-70
2022/04/03 12:19:47;;;;;;;0.80;0.32;;;9.30;89.90;;;;;;5010651;28;20038;-70
2022/04/03 12:22:18;;;;;;;2.70;0.60;;;9.50;82.90;;;;;;5024933;28;20482;-70
2022/04/03 12:24:50;;;;;;;4.82;0.60;;;9.70;79.70;;;;;;5017430;28;20550;-70
2022/04/03 12:27:31;;;;;;;2.88;0.40;;;9.70;75.00;;;;;;5008926;28;20052;-70
2022/04/03 12:30:10;;;;;;;2.45;0.45;;;9.60;71.60;;;;;;4954691;28;20418;-69
2022/04/03 12:32:46;;;;;;;1.88;0.32;;;9.50;73.40;;;;;;4900617;28;20898;-70
2022/04/03 12:35:38;;;;;;;0.77;0.30;;;9.30;73.40;;;;;;4904175;28;20410;-71
2022/04/03 12:38:35;;;;;;;3.08;0.80;;;9.40;73.20;;;;;;4870770;28;20453;-72
2022/04/03 12:41:53;;;;;;;;;;;;;;;;;;;;;
2022/04/03 12:45:13;;;;;;;0.98;0.40;;;9.90;68.60;;;;;;4867450;28;20055;-74
2022/04/03 12:48:35;;;;;;;3.60;0.40;;;10.10;64.50;;;;;;5015077;28;20119;-73
2022/04/03 12:52:19;;;;;;;;;;;;;;;;;;;;;
2022/04/03 12:54:55;;;;;;;4.47;0.90;;;9.70;66.80;;;;;;4917877;29;20043;-73
2022/04/03 13:00:56;;;;;;;;;;;;;;;;;;;;;
2022/04/03 13:05:16;;;;;;;;;;;;;;;;;;;;;
2022/04/03 13:15:57;;;;;;;2.03;0.63;;;9.90;63.90;;;;;;4799770;29;20046;-74
2022/04/03 13:19:25;;;;;;;2.20;0.60;;;9.80;64.70;;;;;;4723511;29;20983;-76
2022/04/03 13:22:31;;;;;;;2.08;0.65;;;9.60;64.40;;;;;;4797942;29;20049;-76
2022/04/03 13:29:44;;;;;;;;;;;;;;;;;;;;;
2022/04/03 13:32:49;;;;;;;4.13;0.63;;;9.20;65.90;;;;;;4814970;29;20427;-73
2022/04/03 13:35:43;;;;;;;1.38;0.50;;;9.00;67.30;;;;;;4823038;29;20051;-73
2022/04/03 13:38:57;;;;;;;1.47;0.67;;;8.80;69.20;;;;;;4804635;29;20077;-75
2022/04/03 13:44:49;;;;;;;5.05;0.70;;;9.00;65.00;;;;;;4891999;29;19923;-73